sensor_id;sensor_type;location;lat;lon;timestamp;P1;durP1;ratioP1;P2;durP2;ratioP2
36551;SDS011;22559;54.176;12.102;2022-12-05T00:00:34;53.50;;;24.00;;
36551;SDS011;22559;54.176;12.102;2022-12-05T00:03:04;55.67;;;24.13;;
36551;SDS011;22559;54.176;12.102;2022-12-05T00:05:29;55.27;;;24.60;;
36551;SDS011;22559;54.176;12.102;2022-12-05T00:07:55;46.10;;;23.80;;
36551;SDS011;22559;54.176;12.102;2022-12-05T00:10:21;55.77;;;25.40;;
36551;SDS011;22559;54.176;12.102;2022-12-05T00:12:58;50.87;;;23.63;;
36551;SDS011;22559;54.176;12.102;2022-12-05T00:15:24;49.83;;;24.40;;
36551;SDS011;22559;54.176;12.102;2022-12-05T00:17:49;51.40;;;24.97;;
36551;SDS011;22559;54.176;12.102;2022-12-05T00:20:15;51.67;;;24.27;;
36551;SDS011;22559;54.176;12.102;2022-12-05T00:22:41;53.93;;;23.53;;
36551;SDS011;22559;54.176;12.102;2022-12-05T00:25:07;54.87;;;25.47;;
36551;SDS011;22559;54.176;12.102;2022-12-05T00:27:33;49.87;;;23.27;;
36551;SDS011;22559;54.176;12.102;2022-12-05T00:29:59;52.10;;;23.50;;
36551;SDS011;22559;54.176;12.102;2022-12-05T00:32:27;53.47;;;23.47;;
36551;SDS011;22559;54.176;12.102;2022-12-05T00:34:53;53.27;;;23.37;;
36551;SDS011;22559;54.176;12.102;2022-12-05T00:37:19;53.73;;;22.07;;
36551;SDS011;22559;54.176;12.102;2022-12-05T00:39:45;56.43;;;23.87;;
36551;SDS011;22559;54.176;12.102;2022-12-05T00:42:10;59.80;;;24.57;;
36551;SDS011;22559;54.176;12.102;2022-12-05T00:44:36;60.87;;;24.30;;
36551;SDS011;22559;54.176;12.102;2022-12-05T00:47:02;57.93;;;23.47;;
36551;SDS011;22559;54.176;12.102;2022-12-05T00:49:27;62.60;;;24.03;;
36551;SDS011;22559;54.176;12.102;2022-12-05T00:51:53;53.37;;;23.53;;
36551;SDS011;22559;54.176;12.102;2022-12-05T00:54:18;53.47;;;22.90;;
36551;SDS011;22559;54.176;12.102;2022-12-05T00:56:44;53.97;;;23.80;;
36551;SDS011;22559;54.176;12.102;2022-12-05T00:59:14;64.07;;;24.27;;
36551;SDS011;22559;54.176;12.102;2022-12-05T01:01:42;63.93;;;23.73;;
36551;SDS011;22559;54.176;12.102;2022-12-05T01:04:14;54.80;;;23.37;;
36551;SDS011;22559;54.176;12.102;2022-12-05T01:06:42;62.53;;;24.50;;
36551;SDS011;22559;54.176;12.102;2022-12-05T01:09:09;66.70;;;24.67;;
36551;SDS011;22559;54.176;12.102;2022-12-05T01:11:37;57.90;;;23.90;;
36551;SDS011;22559;54.176;12.102;2022-12-05T01:14:03;58.70;;;25.70;;
36551;SDS011;22559;54.176;12.102;2022-12-05T01:16:31;59.13;;;24.90;;
36551;SDS011;22559;54.176;12.102;2022-12-05T01:19:00;63.67;;;24.10;;
36551;SDS011;22559;54.176;12.102;2022-12-05T01:21:28;65.70;;;25.00;;
36551;SDS011;22559;54.176;12.102;2022-12-05T01:23:55;65.43;;;25.37;;
36551;SDS011;22559;54.176;12.102;2022-12-05T01:26:21;61.53;;;24.60;;
36551;SDS011;22559;54.176;12.102;2022-12-05T01:28:47;58.07;;;23.73;;
36551;SDS011;22559;54.176;12.102;2022-12-05T01:33:47;65.70;;;24.03;;
36551;SDS011;22559;54.176;12.102;2022-12-05T01:36:13;60.87;;;22.90;;
36551;SDS011;22559;54.176;12.102;2022-12-05T01:38:39;60.83;;;24.40;;
36551;SDS011;22559;54.176;12.102;2022-12-05T01:41:07;53.07;;;21.90;;
36551;SDS011;22559;54.176;12.102;2022-12-05T01:46:20;47.80;;;21.00;;
36551;SDS011;22559;54.176;12.102;2022-12-05T01:48:46;51.60;;;21.20;;
36551;SDS011;22559;54.176;12.102;2022-12-05T01:51:13;55.77;;;23.30;;
36551;SDS011;22559;54.176;12.102;2022-12-05T01:53:39;55.17;;;21.97;;
36551;SDS011;22559;54.176;12.102;2022-12-05T01:56:04;55.57;;;21.77;;
36551;SDS011;22559;54.176;12.102;2022-12-05T01:58:31;53.50;;;21.87;;
36551;SDS011;22559;54.176;12.102;2022-12-05T02:01:00;51.53;;;21.00;;
36551;SDS011;22559;54.176;12.102;2022-12-05T02:03:26;49.70;;;20.27;;
36551;SDS011;22559;54.176;12.102;2022-12-05T02:05:52;49.07;;;22.23;;
36551;SDS011;22559;54.176;12.102;2022-12-05T02:08:20;50.53;;;20.10;;
36551;SDS011;22559;54.176;12.102;2022-12-05T02:10:47;44.77;;;21.60;;
36551;SDS011;22559;54.176;12.102;2022-12-05T02:30:47;44.60;;;19.47;;
36551;SDS011;22559;54.176;12.102;2022-12-05T02:41:20;43.67;;;20.20;;
36551;SDS011;22559;54.176;12.102;2022-12-05T02:46:51;42.77;;;18.63;;
36551;SDS011;22559;54.176;12.102;2022-12-05T02:49:20;39.60;;;19.60;;
36551;SDS011;22559;54.176;12.102;2022-12-05T02:51:50;46.00;;;21.10;;
36551;SDS011;22559;54.176;12.102;2022-12-05T02:54:22;44.07;;;19.77;;
36551;SDS011;22559;54.176;12.102;2022-12-05T02:56:51;44.90;;;20.00;;
36551;SDS011;22559;54.176;12.102;2022-12-05T02:59:18;41.13;;;19.70;;
36551;SDS011;22559;54.176;12.102;2022-12-05T03:01:44;44.57;;;19.93;;
36551;SDS011;22559;54.176;12.102;2022-12-05T03:04:11;49.23;;;21.27;;
36551;SDS011;22559;54.176;12.102;2022-12-05T03:06:40;42.47;;;20.23;;
36551;SDS011;22559;54.176;12.102;2022-12-05T03:09:15;46.87;;;20.60;;
36551;SDS011;22559;54.176;12.102;2022-12-05T03:11:44;43.57;;;19.77;;
36551;SDS011;22559;54.176;12.102;2022-12-05T03:14:56;46.17;;;20.53;;
36551;SDS011;22559;54.176;12.102;2022-12-05T03:17:09;42.67;;;20.53;;
36551;SDS011;22559;54.176;12.102;2022-12-05T03:20:02;46.93;;;21.00;;
36551;SDS011;22559;54.176;12.102;2022-12-05T03:22:30;46.07;;;20.73;;
36551;SDS011;22559;54.176;12.102;2022-12-05T03:25:01;43.50;;;20.07;;
36551;SDS011;22559;54.176;12.102;2022-12-05T03:27:29;42.03;;;20.33;;
36551;SDS011;22559;54.176;12.102;2022-12-05T03:30:07;46.03;;;20.60;;
36551;SDS011;22559;54.176;12.102;2022-12-05T03:32:36;41.93;;;19.70;;
36551;SDS011;22559;54.176;12.102;2022-12-05T03:35:23;43.03;;;20.20;;
36551;SDS011;22559;54.176;12.102;2022-12-05T03:38:02;46.27;;;19.83;;
36551;SDS011;22559;54.176;12.102;2022-12-05T03:43:32;47.40;;;20.57;;
36551;SDS011;22559;54.176;12.102;2022-12-05T03:46:22;40.80;;;20.43;;
36551;SDS011;22559;54.176;12.102;2022-12-05T03:52:17;45.40;;;21.77;;
36551;SDS011;22559;54.176;12.102;2022-12-05T03:55:00;47.20;;;19.43;;
36551;SDS011;22559;54.176;12.102;2022-12-05T03:57:46;42.37;;;20.40;;
36551;SDS011;22559;54.176;12.102;2022-12-05T04:00:23;40.93;;;19.37;;
36551;SDS011;22559;54.176;12.102;2022-12-05T04:05:42;50.07;;;20.97;;
36551;SDS011;22559;54.176;12.102;2022-12-05T04:10:40;49.87;;;21.23;;
36551;SDS011;22559;54.176;12.102;2022-12-05T04:13:20;41.70;;;19.80;;
36551;SDS011;22559;54.176;12.102;2022-12-05T04:16:37;52.27;;;22.20;;
36551;SDS011;22559;54.176;12.102;2022-12-05T04:19:04;41.67;;;20.77;;
36551;SDS011;22559;54.176;12.102;2022-12-05T04:21:36;50.33;;;21.27;;
36551;SDS011;22559;54.176;12.102;2022-12-05T04:24:10;46.20;;;21.27;;
36551;SDS011;22559;54.176;12.102;2022-12-05T04:27:28;55.43;;;22.50;;
36551;SDS011;22559;54.176;12.102;2022-12-05T04:32:32;49.33;;;21.57;;
36551;SDS011;22559;54.176;12.102;2022-12-05T04:35:19;44.77;;;20.10;;
36551;SDS011;22559;54.176;12.102;2022-12-05T04:37:50;41.40;;;19.53;;
36551;SDS011;22559;54.176;12.102;2022-12-05T04:43:21;45.53;;;19.13;;
36551;SDS011;22559;54.176;12.102;2022-12-05T04:45:50;49.80;;;20.70;;
36551;SDS011;22559;54.176;12.102;2022-12-05T04:48:18;42.00;;;19.53;;
36551;SDS011;22559;54.176;12.102;2022-12-05T04:50:47;41.90;;;20.23;;
36551;SDS011;22559;54.176;12.102;2022-12-05T04:53:15;40.00;;;19.87;;
36551;SDS011;22559;54.176;12.102;2022-12-05T04:55:43;44.50;;;19.37;;
36551;SDS011;22559;54.176;12.102;2022-12-05T04:58:14;43.23;;;19.90;;
36551;SDS011;22559;54.176;12.102;2022-12-05T05:00:45;36.97;;;19.13;;
36551;SDS011;22559;54.176;12.102;2022-12-05T05:03:42;45.77;;;20.17;;
36551;SDS011;22559;54.176;12.102;2022-12-05T05:06:31;45.30;;;20.13;;
36551;SDS011;22559;54.176;12.102;2022-12-05T05:08:57;38.70;;;18.63;;
36551;SDS011;22559;54.176;12.102;2022-12-05T05:11:27;47.83;;;21.83;;
36551;SDS011;22559;54.176;12.102;2022-12-05T05:13:55;42.57;;;19.07;;
36551;SDS011;22559;54.176;12.102;2022-12-05T05:16:27;42.93;;;20.03;;
36551;SDS011;22559;54.176;12.102;2022-12-05T05:18:56;51.47;;;21.47;;
36551;SDS011;22559;54.176;12.102;2022-12-05T05:21:23;51.93;;;21.07;;
36551;SDS011;22559;54.176;12.102;2022-12-05T05:23:51;51.90;;;22.13;;
36551;SDS011;22559;54.176;12.102;2022-12-05T05:26:17;48.20;;;21.53;;
36551;SDS011;22559;54.176;12.102;2022-12-05T05:28:43;46.57;;;19.67;;
36551;SDS011;22559;54.176;12.102;2022-12-05T05:31:09;50.40;;;21.87;;
36551;SDS011;22559;54.176;12.102;2022-12-05T05:33:35;45.67;;;20.50;;
36551;SDS011;22559;54.176;12.102;2022-12-05T05:36:02;54.80;;;21.80;;
36551;SDS011;22559;54.176;12.102;2022-12-05T05:38:39;44.03;;;21.13;;
36551;SDS011;22559;54.176;12.102;2022-12-05T05:41:10;47.70;;;21.90;;
36551;SDS011;22559;54.176;12.102;2022-12-05T05:43:39;50.63;;;22.20;;
36551;SDS011;22559;54.176;12.102;2022-12-05T05:46:05;54.63;;;22.20;;
36551;SDS011;22559;54.176;12.102;2022-12-05T05:48:30;47.07;;;20.10;;
36551;SDS011;22559;54.176;12.102;2022-12-05T05:51:00;44.97;;;20.53;;
36551;SDS011;22559;54.176;12.102;2022-12-05T05:53:26;46.00;;;21.17;;
36551;SDS011;22559;54.176;12.102;2022-12-05T05:55:52;46.23;;;20.83;;
36551;SDS011;22559;54.176;12.102;2022-12-05T05:58:18;48.87;;;21.03;;
36551;SDS011;22559;54.176;12.102;2022-12-05T06:00:44;47.07;;;21.23;;
36551;SDS011;22559;54.176;12.102;2022-12-05T06:03:09;53.30;;;20.77;;
36551;SDS011;22559;54.176;12.102;2022-12-05T06:05:35;51.20;;;21.87;;
36551;SDS011;22559;54.176;12.102;2022-12-05T06:08:01;49.27;;;21.67;;
36551;SDS011;22559;54.176;12.102;2022-12-05T06:10:27;60.77;;;23.87;;
36551;SDS011;22559;54.176;12.102;2022-12-05T06:12:54;49.83;;;21.87;;
36551;SDS011;22559;54.176;12.102;2022-12-05T06:15:20;54.53;;;22.17;;
36551;SDS011;22559;54.176;12.102;2022-12-05T06:17:46;51.63;;;23.60;;
36551;SDS011;22559;54.176;12.102;2022-12-05T06:20:12;53.20;;;21.97;;
36551;SDS011;22559;54.176;12.102;2022-12-05T06:22:37;54.80;;;22.07;;
36551;SDS011;22559;54.176;12.102;2022-12-05T06:25:03;54.40;;;22.73;;
36551;SDS011;22559;54.176;12.102;2022-12-05T06:27:29;50.80;;;23.00;;
36551;SDS011;22559;54.176;12.102;2022-12-05T06:29:55;53.43;;;22.17;;
36551;SDS011;22559;54.176;12.102;2022-12-05T06:32:21;49.73;;;21.80;;
36551;SDS011;22559;54.176;12.102;2022-12-05T06:34:47;54.80;;;22.17;;
36551;SDS011;22559;54.176;12.102;2022-12-05T06:37:13;48.37;;;21.23;;
36551;SDS011;22559;54.176;12.102;2022-12-05T06:39:39;53.73;;;22.13;;
36551;SDS011;22559;54.176;12.102;2022-12-05T06:42:05;61.57;;;24.27;;
36551;SDS011;22559;54.176;12.102;2022-12-05T06:44:30;56.33;;;24.40;;
36551;SDS011;22559;54.176;12.102;2022-12-05T06:46:56;56.53;;;22.63;;
36551;SDS011;22559;54.176;12.102;2022-12-05T06:49:22;58.40;;;21.90;;
36551;SDS011;22559;54.176;12.102;2022-12-05T06:51:51;57.63;;;23.60;;
36551;SDS011;22559;54.176;12.102;2022-12-05T06:54:20;58.53;;;22.90;;
36551;SDS011;22559;54.176;12.102;2022-12-05T06:56:46;61.50;;;25.37;;
36551;SDS011;22559;54.176;12.102;2022-12-05T06:59:11;56.77;;;22.30;;
36551;SDS011;22559;54.176;12.102;2022-12-05T07:01:37;54.60;;;23.37;;
36551;SDS011;22559;54.176;12.102;2022-12-05T07:04:08;56.97;;;23.77;;
36551;SDS011;22559;54.176;12.102;2022-12-05T07:06:37;60.37;;;22.47;;
36551;SDS011;22559;54.176;12.102;2022-12-05T07:09:04;57.70;;;22.23;;
36551;SDS011;22559;54.176;12.102;2022-12-05T07:11:30;57.67;;;22.63;;
36551;SDS011;22559;54.176;12.102;2022-12-05T07:13:55;50.30;;;22.23;;
36551;SDS011;22559;54.176;12.102;2022-12-05T07:16:21;51.37;;;21.60;;
36551;SDS011;22559;54.176;12.102;2022-12-05T07:18:47;59.73;;;23.47;;
36551;SDS011;22559;54.176;12.102;2022-12-05T07:21:14;47.30;;;21.83;;
36551;SDS011;22559;54.176;12.102;2022-12-05T07:23:41;53.63;;;22.80;;
36551;SDS011;22559;54.176;12.102;2022-12-05T07:26:10;49.47;;;21.63;;
36551;SDS011;22559;54.176;12.102;2022-12-05T07:28:37;51.60;;;21.60;;
36551;SDS011;22559;54.176;12.102;2022-12-05T07:31:04;69.83;;;31.13;;
36551;SDS011;22559;54.176;12.102;2022-12-05T07:33:32;124.47;;;49.77;;
36551;SDS011;22559;54.176;12.102;2022-12-05T07:36:02;63.60;;;27.07;;
36551;SDS011;22559;54.176;12.102;2022-12-05T07:38:33;57.23;;;23.30;;
36551;SDS011;22559;54.176;12.102;2022-12-05T07:40:58;64.93;;;23.47;;
36551;SDS011;22559;54.176;12.102;2022-12-05T07:43:28;56.60;;;23.50;;
36551;SDS011;22559;54.176;12.102;2022-12-05T07:45:54;57.90;;;23.63;;
36551;SDS011;22559;54.176;12.102;2022-12-05T07:48:20;55.50;;;21.93;;
36551;SDS011;22559;54.176;12.102;2022-12-05T07:50:46;54.60;;;22.47;;
36551;SDS011;22559;54.176;12.102;2022-12-05T07:53:11;52.47;;;22.03;;
36551;SDS011;22559;54.176;12.102;2022-12-05T07:55:37;63.43;;;23.90;;
36551;SDS011;22559;54.176;12.102;2022-12-05T07:58:03;52.70;;;22.53;;
36551;SDS011;22559;54.176;12.102;2022-12-05T08:00:28;59.07;;;22.87;;
36551;SDS011;22559;54.176;12.102;2022-12-05T08:02:54;58.47;;;22.73;;
36551;SDS011;22559;54.176;12.102;2022-12-05T08:05:20;57.27;;;22.67;;
36551;SDS011;22559;54.176;12.102;2022-12-05T08:07:45;68.07;;;23.63;;
36551;SDS011;22559;54.176;12.102;2022-12-05T08:10:11;71.87;;;23.17;;
36551;SDS011;22559;54.176;12.102;2022-12-05T08:12:37;60.10;;;24.30;;
36551;SDS011;22559;54.176;12.102;2022-12-05T08:15:02;59.93;;;21.83;;
36551;SDS011;22559;54.176;12.102;2022-12-05T08:17:29;63.67;;;22.30;;
36551;SDS011;22559;54.176;12.102;2022-12-05T08:19:56;70.67;;;23.00;;
36551;SDS011;22559;54.176;12.102;2022-12-05T08:22:21;65.83;;;23.03;;
36551;SDS011;22559;54.176;12.102;2022-12-05T08:24:50;70.80;;;23.10;;
36551;SDS011;22559;54.176;12.102;2022-12-05T08:27:16;67.50;;;23.93;;
36551;SDS011;22559;54.176;12.102;2022-12-05T08:29:41;62.47;;;23.60;;
36551;SDS011;22559;54.176;12.102;2022-12-05T08:32:07;65.90;;;23.40;;
36551;SDS011;22559;54.176;12.102;2022-12-05T08:34:33;71.30;;;23.50;;
36551;SDS011;22559;54.176;12.102;2022-12-05T08:36:58;56.97;;;22.03;;
36551;SDS011;22559;54.176;12.102;2022-12-05T08:39:24;63.27;;;23.23;;
36551;SDS011;22559;54.176;12.102;2022-12-05T08:41:51;61.70;;;24.70;;
36551;SDS011;22559;54.176;12.102;2022-12-05T08:44:16;66.60;;;22.97;;
36551;SDS011;22559;54.176;12.102;2022-12-05T08:46:43;55.17;;;22.20;;
36551;SDS011;22559;54.176;12.102;2022-12-05T08:49:11;70.00;;;23.40;;
36551;SDS011;22559;54.176;12.102;2022-12-05T08:51:37;66.83;;;23.37;;
36551;SDS011;22559;54.176;12.102;2022-12-05T08:54:04;67.73;;;23.13;;
36551;SDS011;22559;54.176;12.102;2022-12-05T08:56:29;70.60;;;24.33;;
36551;SDS011;22559;54.176;12.102;2022-12-05T08:58:57;56.33;;;23.33;;
36551;SDS011;22559;54.176;12.102;2022-12-05T09:01:22;62.50;;;22.70;;
36551;SDS011;22559;54.176;12.102;2022-12-05T09:03:54;66.03;;;24.17;;
36551;SDS011;22559;54.176;12.102;2022-12-05T09:06:21;70.47;;;24.27;;
36551;SDS011;22559;54.176;12.102;2022-12-05T09:08:52;63.53;;;23.13;;
36551;SDS011;22559;54.176;12.102;2022-12-05T09:11:20;64.57;;;20.13;;
36551;SDS011;22559;54.176;12.102;2022-12-05T09:13:48;55.63;;;21.73;;
36551;SDS011;22559;54.176;12.102;2022-12-05T09:16:22;54.80;;;20.10;;
36551;SDS011;22559;54.176;12.102;2022-12-05T09:18:56;59.70;;;21.80;;
36551;SDS011;22559;54.176;12.102;2022-12-05T09:21:24;57.00;;;22.00;;
36551;SDS011;22559;54.176;12.102;2022-12-05T09:23:51;63.90;;;22.23;;
36551;SDS011;22559;54.176;12.102;2022-12-05T09:26:18;60.43;;;21.80;;
36551;SDS011;22559;54.176;12.102;2022-12-05T09:28:47;57.07;;;20.40;;
36551;SDS011;22559;54.176;12.102;2022-12-05T09:31:14;59.37;;;21.60;;
36551;SDS011;22559;54.176;12.102;2022-12-05T09:33:41;55.33;;;21.17;;
36551;SDS011;22559;54.176;12.102;2022-12-05T09:36:08;55.30;;;20.07;;
36551;SDS011;22559;54.176;12.102;2022-12-05T09:38:36;51.87;;;20.33;;
36551;SDS011;22559;54.176;12.102;2022-12-05T09:41:17;57.57;;;21.00;;
36551;SDS011;22559;54.176;12.102;2022-12-05T09:49:39;51.07;;;20.33;;
36551;SDS011;22559;54.176;12.102;2022-12-05T09:52:13;51.17;;;19.77;;
36551;SDS011;22559;54.176;12.102;2022-12-05T09:54:48;41.50;;;17.83;;
36551;SDS011;22559;54.176;12.102;2022-12-05T09:57:15;48.37;;;19.13;;
36551;SDS011;22559;54.176;12.102;2022-12-05T09:59:43;44.27;;;18.27;;
36551;SDS011;22559;54.176;12.102;2022-12-05T10:02:28;45.53;;;19.10;;
36551;SDS011;22559;54.176;12.102;2022-12-05T10:05:06;41.93;;;18.43;;
36551;SDS011;22559;54.176;12.102;2022-12-05T10:08:05;46.47;;;18.43;;
36551;SDS011;22559;54.176;12.102;2022-12-05T10:16:05;48.27;;;20.00;;
36551;SDS011;22559;54.176;12.102;2022-12-05T10:18:47;45.57;;;19.13;;
36551;SDS011;22559;54.176;12.102;2022-12-05T10:21:21;48.23;;;20.67;;
36551;SDS011;22559;54.176;12.102;2022-12-05T10:23:55;46.50;;;19.40;;
36551;SDS011;22559;54.176;12.102;2022-12-05T10:26:24;53.17;;;20.57;;
36551;SDS011;22559;54.176;12.102;2022-12-05T10:31:36;47.93;;;18.53;;
36551;SDS011;22559;54.176;12.102;2022-12-05T10:34:49;43.67;;;17.73;;
36551;SDS011;22559;54.176;12.102;2022-12-05T10:37:08;44.07;;;17.83;;
36551;SDS011;22559;54.176;12.102;2022-12-05T10:39:35;54.57;;;19.50;;
36551;SDS011;22559;54.176;12.102;2022-12-05T10:42:01;54.97;;;20.77;;
36551;SDS011;22559;54.176;12.102;2022-12-05T10:44:27;55.63;;;20.53;;
36551;SDS011;22559;54.176;12.102;2022-12-05T10:46:53;55.90;;;19.87;;
36551;SDS011;22559;54.176;12.102;2022-12-05T10:49:19;49.03;;;19.63;;
36551;SDS011;22559;54.176;12.102;2022-12-05T10:51:45;39.37;;;17.83;;
36551;SDS011;22559;54.176;12.102;2022-12-05T10:54:16;47.20;;;19.43;;
36551;SDS011;22559;54.176;12.102;2022-12-05T10:59:16;66.27;;;26.47;;
36551;SDS011;22559;54.176;12.102;2022-12-05T11:01:45;57.43;;;21.07;;
36551;SDS011;22559;54.176;12.102;2022-12-05T11:06:58;55.27;;;20.20;;
36551;SDS011;22559;54.176;12.102;2022-12-05T11:09:29;63.40;;;21.70;;
36551;SDS011;22559;54.176;12.102;2022-12-05T11:12:21;63.47;;;21.77;;
36551;SDS011;22559;54.176;12.102;2022-12-05T11:14:54;65.07;;;21.57;;
36551;SDS011;22559;54.176;12.102;2022-12-05T11:17:24;58.23;;;19.47;;
36551;SDS011;22559;54.176;12.102;2022-12-05T11:19:51;62.83;;;22.43;;
36551;SDS011;22559;54.176;12.102;2022-12-05T11:22:17;57.60;;;20.83;;
36551;SDS011;22559;54.176;12.102;2022-12-05T11:24:43;52.67;;;20.13;;
36551;SDS011;22559;54.176;12.102;2022-12-05T11:29:40;51.80;;;19.73;;
36551;SDS011;22559;54.176;12.102;2022-12-05T11:32:27;55.43;;;19.63;;
36551;SDS011;22559;54.176;12.102;2022-12-05T11:38:13;53.43;;;20.30;;
36551;SDS011;22559;54.176;12.102;2022-12-05T11:40:14;49.90;;;18.93;;
36551;SDS011;22559;54.176;12.102;2022-12-05T12:05:40;50.80;;;19.73;;
36551;SDS011;22559;54.176;12.102;2022-12-05T12:10:54;63.67;;;21.03;;
36551;SDS011;22559;54.176;12.102;2022-12-05T12:16:52;60.80;;;21.67;;
36551;SDS011;22559;54.176;12.102;2022-12-05T12:19:50;52.83;;;19.97;;
36551;SDS011;22559;54.176;12.102;2022-12-05T12:47:46;53.03;;;20.67;;
36551;SDS011;22559;54.176;12.102;2022-12-05T12:50:20;45.67;;;19.73;;
36551;SDS011;22559;54.176;12.102;2022-12-05T12:56:04;60.83;;;21.73;;
36551;SDS011;22559;54.176;12.102;2022-12-05T13:04:18;53.10;;;21.20;;
36551;SDS011;22559;54.176;12.102;2022-12-05T13:09:22;50.23;;;20.37;;
36551;SDS011;22559;54.176;12.102;2022-12-05T13:12:12;51.23;;;19.73;;
36551;SDS011;22559;54.176;12.102;2022-12-05T13:14:43;52.67;;;21.33;;
36551;SDS011;22559;54.176;12.102;2022-12-05T13:17:34;57.23;;;20.27;;
36551;SDS011;22559;54.176;12.102;2022-12-05T13:20:04;47.97;;;19.50;;
36551;SDS011;22559;54.176;12.102;2022-12-05T13:22:38;55.03;;;19.43;;
36551;SDS011;22559;54.176;12.102;2022-12-05T13:25:04;54.97;;;19.90;;
36551;SDS011;22559;54.176;12.102;2022-12-05T13:27:30;62.17;;;21.90;;
36551;SDS011;22559;54.176;12.102;2022-12-05T13:29:56;63.37;;;27.77;;
36551;SDS011;22559;54.176;12.102;2022-12-05T13:34:54;65.57;;;27.00;;
36551;SDS011;22559;54.176;12.102;2022-12-05T13:37:24;212.77;;;105.07;;
36551;SDS011;22559;54.176;12.102;2022-12-05T13:40:30;48.07;;;18.90;;
36551;SDS011;22559;54.176;12.102;2022-12-05T13:43:24;43.97;;;17.80;;
36551;SDS011;22559;54.176;12.102;2022-12-05T13:46:05;56.33;;;19.53;;
36551;SDS011;22559;54.176;12.102;2022-12-05T13:48:43;51.60;;;19.07;;
36551;SDS011;22559;54.176;12.102;2022-12-05T13:51:27;54.50;;;18.40;;
36551;SDS011;22559;54.176;12.102;2022-12-05T13:53:58;54.73;;;19.50;;
36551;SDS011;22559;54.176;12.102;2022-12-05T14:07:48;55.10;;;19.27;;
36551;SDS011;22559;54.176;12.102;2022-12-05T14:10:15;43.10;;;17.77;;
36551;SDS011;22559;54.176;12.102;2022-12-05T14:17:56;50.30;;;18.83;;
36551;SDS011;22559;54.176;12.102;2022-12-05T14:20:39;45.37;;;17.57;;
36551;SDS011;22559;54.176;12.102;2022-12-05T14:34:27;40.80;;;15.97;;
36551;SDS011;22559;54.176;12.102;2022-12-05T14:39:44;41.40;;;14.97;;
36551;SDS011;22559;54.176;12.102;2022-12-05T14:44:55;35.37;;;14.30;;
36551;SDS011;22559;54.176;12.102;2022-12-05T14:47:31;40.20;;;15.30;;
36551;SDS011;22559;54.176;12.102;2022-12-05T14:52:42;36.00;;;14.80;;
36551;SDS011;22559;54.176;12.102;2022-12-05T14:55:12;36.57;;;15.77;;
36551;SDS011;22559;54.176;12.102;2022-12-05T14:57:45;34.63;;;15.37;;
36551;SDS011;22559;54.176;12.102;2022-12-05T15:00:22;35.07;;;15.33;;
36551;SDS011;22559;54.176;12.102;2022-12-05T15:02:48;42.03;;;16.00;;
36551;SDS011;22559;54.176;12.102;2022-12-05T15:05:26;33.20;;;14.70;;
36551;SDS011;22559;54.176;12.102;2022-12-05T15:07:56;31.40;;;14.03;;
36551;SDS011;22559;54.176;12.102;2022-12-05T15:10:27;36.47;;;15.07;;
36551;SDS011;22559;54.176;12.102;2022-12-05T15:12:57;37.83;;;13.93;;
36551;SDS011;22559;54.176;12.102;2022-12-05T15:15:40;26.30;;;12.97;;
36551;SDS011;22559;54.176;12.102;2022-12-05T15:23:40;28.20;;;13.47;;
36551;SDS011;22559;54.176;12.102;2022-12-05T15:26:22;34.37;;;13.00;;
36551;SDS011;22559;54.176;12.102;2022-12-05T15:31:48;28.93;;;13.37;;
36551;SDS011;22559;54.176;12.102;2022-12-05T15:36:49;29.10;;;13.73;;
36551;SDS011;22559;54.176;12.102;2022-12-05T15:42:41;34.93;;;13.87;;
36551;SDS011;22559;54.176;12.102;2022-12-05T15:47:41;27.50;;;12.50;;
36551;SDS011;22559;54.176;12.102;2022-12-05T15:50:12;25.07;;;12.70;;
36551;SDS011;22559;54.176;12.102;2022-12-05T15:52:40;24.57;;;12.07;;
36551;SDS011;22559;54.176;12.102;2022-12-05T15:55:12;25.90;;;11.30;;
36551;SDS011;22559;54.176;12.102;2022-12-05T15:57:45;22.27;;;11.50;;
36551;SDS011;22559;54.176;12.102;2022-12-05T16:00:15;29.00;;;12.40;;
36551;SDS011;22559;54.176;12.102;2022-12-05T16:05:22;25.93;;;12.77;;
36551;SDS011;22559;54.176;12.102;2022-12-05T16:07:49;25.63;;;12.13;;
36551;SDS011;22559;54.176;12.102;2022-12-05T16:10:15;27.10;;;12.07;;
36551;SDS011;22559;54.176;12.102;2022-12-05T16:12:44;29.07;;;13.07;;
36551;SDS011;22559;54.176;12.102;2022-12-05T16:15:16;26.43;;;12.77;;
36551;SDS011;22559;54.176;12.102;2022-12-05T16:17:54;27.50;;;13.90;;
36551;SDS011;22559;54.176;12.102;2022-12-05T16:22:52;26.03;;;12.37;;
36551;SDS011;22559;54.176;12.102;2022-12-05T16:25:24;23.43;;;11.70;;
36551;SDS011;22559;54.176;12.102;2022-12-05T16:27:58;24.60;;;11.23;;
36551;SDS011;22559;54.176;12.102;2022-12-05T16:30:35;23.30;;;12.07;;
36551;SDS011;22559;54.176;12.102;2022-12-05T16:33:05;23.30;;;11.53;;
36551;SDS011;22559;54.176;12.102;2022-12-05T16:35:46;27.77;;;12.70;;
36551;SDS011;22559;54.176;12.102;2022-12-05T16:43:43;23.90;;;11.50;;
36551;SDS011;22559;54.176;12.102;2022-12-05T16:48:39;19.50;;;10.23;;
36551;SDS011;22559;54.176;12.102;2022-12-05T16:53:47;22.13;;;10.57;;
36551;SDS011;22559;54.176;12.102;2022-12-05T16:56:27;20.07;;;10.40;;
36551;SDS011;22559;54.176;12.102;2022-12-05T16:58:55;22.17;;;11.23;;
36551;SDS011;22559;54.176;12.102;2022-12-05T17:01:25;20.60;;;10.37;;
36551;SDS011;22559;54.176;12.102;2022-12-05T17:03:52;21.80;;;10.57;;
36551;SDS011;22559;54.176;12.102;2022-12-05T17:06:18;20.97;;;9.90;;
36551;SDS011;22559;54.176;12.102;2022-12-05T17:08:48;20.97;;;10.40;;
36551;SDS011;22559;54.176;12.102;2022-12-05T17:11:24;21.60;;;11.00;;
36551;SDS011;22559;54.176;12.102;2022-12-05T17:13:55;24.20;;;10.67;;
36551;SDS011;22559;54.176;12.102;2022-12-05T17:16:22;21.00;;;10.27;;
36551;SDS011;22559;54.176;12.102;2022-12-05T17:18:50;26.30;;;11.33;;
36551;SDS011;22559;54.176;12.102;2022-12-05T17:21:17;22.90;;;11.50;;
36551;SDS011;22559;54.176;12.102;2022-12-05T17:23:46;22.73;;;11.77;;
36551;SDS011;22559;54.176;12.102;2022-12-05T17:26:13;25.67;;;11.57;;
36551;SDS011;22559;54.176;12.102;2022-12-05T17:28:40;20.40;;;11.10;;
36551;SDS011;22559;54.176;12.102;2022-12-05T17:31:06;27.27;;;12.33;;
36551;SDS011;22559;54.176;12.102;2022-12-05T17:33:34;27.07;;;12.57;;
36551;SDS011;22559;54.176;12.102;2022-12-05T17:36:00;26.90;;;11.33;;
36551;SDS011;22559;54.176;12.102;2022-12-05T17:38:25;19.00;;;10.83;;
36551;SDS011;22559;54.176;12.102;2022-12-05T17:40:51;27.17;;;11.43;;
36551;SDS011;22559;54.176;12.102;2022-12-05T17:43:17;23.47;;;11.37;;
36551;SDS011;22559;54.176;12.102;2022-12-05T17:45:42;24.83;;;12.23;;
36551;SDS011;22559;54.176;12.102;2022-12-05T17:48:10;25.60;;;10.33;;
36551;SDS011;22559;54.176;12.102;2022-12-05T17:50:38;24.17;;;11.97;;
36551;SDS011;22559;54.176;12.102;2022-12-05T17:53:05;26.67;;;11.40;;
36551;SDS011;22559;54.176;12.102;2022-12-05T17:55:33;24.87;;;11.83;;
36551;SDS011;22559;54.176;12.102;2022-12-05T17:57:58;22.13;;;11.53;;